Huvudsida
METAR-TAF:

METAR-TAF

Flygplatser :

Jakutsk, Ryssland

latitud: 62-01N, longitud: 129-43E, höjd: 103 m

Aktuellt väderrapport

Denna rapport gjordes för 38 minuter sedan, klockan 00:30 UTC
Vind 6 kt från väst/sydväst
Temperatur -42°C
Fuktighet 58%
Tryck 1033 hPa
Sikt: 2400 m
fuktdis

METAR: UEEE 200030Z 25003MPS 2400 BR NSC M42/M47 Q1033 R23L/490150 NOSIG RMK QFE766

Tid: 10:08 (01:08 UTC)

Väderprognos

Denna rapport gjordes för 17 minuter sedan, klockan 00:51 UTC
Prognos gäller från 20 kl. 00 UTC till 21 kl. 06 UTC
Vind 6 kt från väst
Sikt: 1200 m
fuktdis
Temporärt
från 20 kl. 00 UTC till 20 kl. 12 UTC
Sikt: 0300 m
på en höjd av 300 ft
dimma

TAF: UEEE 200051Z 2000/2106 26003MPS 1200 BR NSC TXM39/2006Z TNM42/2001Z TEMPO 2000/2012 0300 FG VV003

Aktuella väderrapporter och prognoser från 4000 flygplatser (METAR- och TAF-rapporter).

De tillgängliga stationerna syns som gula och röda prickar på kartan.

För musen över prickarna för att se namnen på stationerna.

Klicka sedan för att få väderrapporter och prognoser.

För att ändra kartan: Klicka på de gröna knapparna med ett svart kors på för att zooma in; den gröna knappen med ett streck på för att zooma ut; eller på de gröna pilarna för angränsande kartor.


METAR-TAF: